Time;durP1;ratioP1;P1;durP2;ratioP2;P2;SDS_P1;SDS_P2;PMS_P1;PMS_P2;Temp;Humidity;BMP_temperature;BMP_pressure;BME280_temperature;BME280_humidity;BME280_pressure;Samples;Min_cycle;Max_cycle;Signal;HPM_P1;HPM_P2
2021/12/30 00:01:20;;;;;;;89.40;24.00;;;11.40;99.90;;;;;;5035152;28;20048;-87
2021/12/30 00:03:47;;;;;;;78.28;21.75;;;11.40;99.90;;;;;;5037015;28;20044;-88
2021/12/30 00:06:14;;;;;;;68.13;22.50;;;11.40;99.90;;;;;;5036497;28;20032;-87
2021/12/30 00:08:40;;;;;;;72.03;22.75;;;11.40;99.90;;;;;;5037661;28;20025;-87
2021/12/30 00:11:11;;;;;;;80.50;21.27;;;11.40;99.90;;;;;;5004314;28;20032;-87
2021/12/30 00:13:45;;;;;;;81.32;22.40;;;11.40;99.90;;;;;;5030505;28;20482;-87
2021/12/30 00:16:20;;;;;;;76.65;22.35;;;11.40;99.90;;;;;;5020335;28;20380;-87
2021/12/30 00:18:51;;;;;;;73.10;21.38;;;11.40;99.90;;;;;;5037065;28;20080;-85
2021/12/30 00:21:38;;;;;;;75.28;21.42;;;11.40;99.90;;;;;;5020351;28;20048;-85
2021/12/30 00:24:06;;;;;;;77.32;21.27;;;11.40;99.90;;;;;;5036679;28;20021;-85
2021/12/30 00:26:31;;;;;;;81.22;21.75;;;11.40;99.90;;;;;;5036703;28;20033;-85
2021/12/30 00:28:58;;;;;;;66.85;20.92;;;11.30;99.90;;;;;;5003964;28;20034;-85
2021/12/30 00:31:24;;;;;;;86.07;23.63;;;11.30;99.90;;;;;;5003551;28;20033;-85
2021/12/30 00:33:58;;;;;;;66.20;19.75;;;11.40;99.90;;;;;;5003752;28;20030;-87
2021/12/30 00:36:25;;;;;;;68.18;20.20;;;11.40;99.90;;;;;;5021349;28;20029;-87
2021/12/30 00:38:50;;;;;;;61.85;20.35;;;11.40;99.90;;;;;;5020241;28;20084;-85
2021/12/30 00:41:25;;;;;;;62.25;19.42;;;11.40;99.90;;;;;;5036090;28;20026;-85
2021/12/30 00:43:52;;;;;;;76.70;19.95;;;11.50;99.90;;;;;;5036218;28;20025;-85
2021/12/30 00:46:17;;;;;;;74.18;19.60;;;11.50;99.90;;;;;;5019757;28;20029;-85
2021/12/30 00:48:49;;;;;;;59.05;18.00;;;11.50;99.90;;;;;;5019592;28;20116;-85
2021/12/30 00:51:15;;;;;;;70.47;17.15;;;11.50;99.90;;;;;;5036299;28;20026;-85
2021/12/30 00:53:58;;;;;;;59.28;16.02;;;11.50;99.90;;;;;;5003476;28;20048;-85
2021/12/30 00:56:37;;;;;;;45.90;14.55;;;11.50;99.90;;;;;;5037253;28;20049;-85
2021/12/30 00:59:10;;;;;;;68.13;15.93;;;11.60;99.90;;;;;;5019008;28;20038;-85
2021/12/30 01:01:37;;;;;;;53.38;14.77;;;11.50;99.90;;;;;;5036470;28;20081;-85
2021/12/30 01:04:11;;;;;;;53.95;15.38;;;11.60;99.90;;;;;;5019668;28;20133;-85
2021/12/30 01:06:59;;;;;;;48.50;13.30;;;11.60;99.90;;;;;;5019867;28;20038;-85
2021/12/30 01:09:26;;;;;;;56.85;13.27;;;11.60;99.90;;;;;;5035928;28;20033;-84
2021/12/30 01:11:54;;;;;;;62.50;13.45;;;11.70;99.90;;;;;;5035151;28;20033;-85
2021/12/30 01:14:25;;;;;;;45.40;11.63;;;11.70;99.90;;;;;;5003155;28;20052;-85
2021/12/30 01:17:39;;;;;;;53.85;12.00;;;11.70;99.90;;;;;;5017494;28;20037;-84
2021/12/30 01:20:41;;;;;;;61.83;12.15;;;11.70;99.90;;;;;;5026542;28;20047;-85
2021/12/30 01:23:07;;;;;;;51.40;11.80;;;11.70;99.90;;;;;;5035215;28;20486;-84
2021/12/30 01:25:34;;;;;;;50.90;10.65;;;11.70;99.90;;;;;;5018772;28;20021;-85
2021/12/30 01:28:21;;;;;;;55.95;12.15;;;11.70;99.90;;;;;;5018911;28;20022;-85
2021/12/30 01:31:05;;;;;;;60.45;12.93;;;11.80;99.90;;;;;;5017540;28;20033;-85
2021/12/30 01:33:39;;;;;;;59.28;13.25;;;11.80;99.90;;;;;;5021289;28;20026;-85
2021/12/30 01:36:08;;;;;;;62.83;13.95;;;11.80;99.90;;;;;;5018962;28;20471;-85
2021/12/30 01:38:34;;;;;;;55.45;13.77;;;11.90;99.90;;;;;;5018638;28;20025;-85
2021/12/30 01:41:01;;;;;;;63.22;14.10;;;11.90;99.90;;;;;;5002269;28;20068;-84
2021/12/30 01:43:36;;;;;;;66.13;14.98;;;11.90;99.90;;;;;;5002457;28;20471;-84
2021/12/30 01:46:10;;;;;;;75.97;16.33;;;12.00;99.90;;;;;;5009473;28;20048;-84
2021/12/30 01:48:51;;;;;;;52.35;14.55;;;12.00;99.90;;;;;;4986070;28;20041;-84
2021/12/30 01:51:34;;;;;;;67.22;15.95;;;12.00;99.90;;;;;;5036126;28;20052;-84
2021/12/30 01:54:12;;;;;;;70.35;15.60;;;12.00;99.90;;;;;;5002509;28;20033;-86
2021/12/30 01:57:01;;;;;;;77.35;17.30;;;12.00;99.90;;;;;;5021255;28;20069;-84
2021/12/30 01:59:35;;;;;;;73.35;18.00;;;12.10;99.90;;;;;;5003017;28;20034;-84
2021/12/30 02:02:38;;;;;;;64.85;16.90;;;12.10;99.90;;;;;;5036057;28;20387;-84
2021/12/30 02:05:24;;;;;;;63.42;17.20;;;12.00;99.90;;;;;;5046844;28;20049;-84
2021/12/30 02:08:15;;;;;;;64.65;16.70;;;12.10;99.90;;;;;;5027270;28;20017;-84
2021/12/30 02:10:59;;;;;;;71.75;18.77;;;12.10;99.90;;;;;;5032895;28;20013;-84
2021/12/30 02:13:47;;;;;;;80.63;18.48;;;12.10;99.90;;;;;;5015095;28;20028;-85
2021/12/30 02:16:24;;;;;;;87.25;19.33;;;12.20;99.90;;;;;;5035613;28;20037;-85
2021/12/30 02:18:58;;;;;;;71.80;18.08;;;12.20;99.90;;;;;;5001503;28;20071;-85
2021/12/30 02:22:04;;;;;;;79.28;20.48;;;12.20;99.90;;;;;;4972187;28;20140;-85
2021/12/30 02:24:32;;;;;;;77.82;19.50;;;12.20;99.90;;;;;;5032912;28;20032;-85
2021/12/30 02:27:02;;;;;;;84.15;21.23;;;12.20;99.90;;;;;;5034442;28;20033;-85
2021/12/30 02:29:30;;;;;;;76.90;19.70;;;12.20;99.90;;;;;;5032768;28;20092;-85
2021/12/30 02:32:10;;;;;;;77.80;21.10;;;12.20;99.90;;;;;;5001364;28;20037;-87
2021/12/30 02:34:38;;;;;;;69.93;19.87;;;12.30;99.90;;;;;;5034202;28;20052;-87
2021/12/30 02:37:24;;;;;;;86.05;19.95;;;12.30;99.90;;;;;;5022001;28;20041;-87
2021/12/30 02:39:54;;;;;;;79.72;20.92;;;12.30;99.90;;;;;;5001137;28;20116;-87
2021/12/30 02:42:44;;;;;;;72.97;19.27;;;12.30;99.90;;;;;;4996806;28;20045;-88
2021/12/30 02:45:13;;;;;;;81.57;20.38;;;12.30;99.90;;;;;;5015588;28;20018;-87
2021/12/30 02:47:45;;;;;;;92.53;22.58;;;12.30;99.90;;;;;;5018627;28;20367;-87
2021/12/30 02:50:11;;;;;;;85.13;22.63;;;12.30;99.90;;;;;;5001737;28;20451;-87
2021/12/30 02:52:53;;;;;;;89.18;23.35;;;12.40;99.90;;;;;;5017570;28;20053;-87
2021/12/30 02:55:26;;;;;;;90.43;23.05;;;12.40;99.90;;;;;;5017679;28;20025;-87
2021/12/30 02:57:52;;;;;;;71.55;22.25;;;12.40;99.90;;;;;;5001011;28;20051;-87
2021/12/30 03:00:39;;;;;;;85.95;22.83;;;12.40;99.90;;;;;;5001062;28;20113;-87
2021/12/30 03:03:06;;;;;;;86.70;24.58;;;12.40;99.90;;;;;;4997796;28;20499;-88
2021/12/30 03:05:36;;;;;;;90.38;23.90;;;12.40;99.90;;;;;;5016075;28;20132;-87
2021/12/30 03:08:06;;;;;;;87.43;23.70;;;12.40;99.90;;;;;;5000752;28;20022;-87
2021/12/30 03:10:33;;;;;;;97.32;24.90;;;12.40;99.90;;;;;;5001388;28;20044;-87
2021/12/30 03:13:15;;;;;;;84.10;25.27;;;12.40;99.90;;;;;;4984716;28;20033;-87
2021/12/30 03:15:41;;;;;;;92.70;23.75;;;12.40;99.90;;;;;;5025862;28;20049;-87
2021/12/30 03:18:08;;;;;;;90.85;24.80;;;12.40;99.90;;;;;;5016989;28;20114;-88
2021/12/30 03:20:35;;;;;;;92.22;25.10;;;12.40;99.90;;;;;;5016779;28;20060;-88
2021/12/30 03:23:15;;;;;;;89.28;25.38;;;12.40;99.90;;;;;;5016674;28;20471;-87
2021/12/30 03:25:42;;;;;;;77.45;23.23;;;12.40;99.90;;;;;;5034142;28;20036;-87
2021/12/30 03:28:08;;;;;;;87.05;24.30;;;12.40;99.90;;;;;;5016730;28;20026;-87
2021/12/30 03:30:44;;;;;;;96.78;25.38;;;12.40;99.90;;;;;;5016798;28;20343;-88
2021/12/30 03:33:10;;;;;;;90.15;24.20;;;12.50;99.90;;;;;;5016675;28;20025;-88
2021/12/30 03:35:36;;;;;;;102.75;24.35;;;12.40;99.90;;;;;;5000115;28;20021;-88
2021/12/30 03:38:02;;;;;;;89.38;24.85;;;12.50;99.90;;;;;;5032947;28;20018;-87
2021/12/30 03:40:28;;;;;;;85.13;25.50;;;12.40;99.90;;;;;;5016544;28;20053;-87
2021/12/30 03:42:53;;;;;;;89.28;23.50;;;12.50;99.90;;;;;;5000102;28;20388;-85
2021/12/30 03:45:19;;;;;;;78.38;23.05;;;12.50;99.90;;;;;;5000144;28;20029;-84
2021/12/30 03:47:47;;;;;;;98.65;25.95;;;12.50;99.90;;;;;;5032803;28;20125;-85
2021/12/30 03:50:20;;;;;;;99.25;24.65;;;12.50;99.90;;;;;;5002379;28;20030;-85
2021/12/30 03:52:53;;;;;;;71.45;22.20;;;12.50;99.90;;;;;;5018133;28;20021;-86
2021/12/30 03:55:20;;;;;;;101.22;25.42;;;12.50;99.90;;;;;;5017672;28;20479;-85
2021/12/30 03:57:47;;;;;;;84.30;22.80;;;12.60;99.90;;;;;;5016854;28;20025;-85
2021/12/30 04:00:14;;;;;;;83.65;22.85;;;12.60;99.90;;;;;;5016348;28;20021;-85
2021/12/30 04:02:40;;;;;;;109.50;25.77;;;12.60;99.90;;;;;;5000221;28;20024;-85
2021/12/30 04:05:06;;;;;;;95.20;24.20;;;12.60;99.90;;;;;;5015927;28;20056;-85
2021/12/30 04:07:32;;;;;;;118.93;26.85;;;12.60;99.90;;;;;;4999957;28;20088;-85
2021/12/30 04:09:58;;;;;;;115.75;26.58;;;12.60;99.90;;;;;;5114511;23;20495;-85
2021/12/30 04:12:24;;;;;;;86.53;24.05;;;12.60;99.90;;;;;;5013389;28;20449;-85
2021/12/30 04:14:49;;;;;;;83.43;23.98;;;12.60;99.90;;;;;;5000070;28;20462;-85
2021/12/30 04:17:15;;;;;;;102.25;26.30;;;12.60;99.90;;;;;;4983537;28;20021;-85
2021/12/30 04:19:41;;;;;;;86.63;25.02;;;12.60;99.90;;;;;;5016313;28;20382;-85
2021/12/30 04:22:08;;;;;;;134.63;29.60;;;12.60;99.90;;;;;;4999706;28;20038;-85
2021/12/30 04:24:34;;;;;;;89.50;24.98;;;12.70;99.90;;;;;;4999817;28;20041;-85
2021/12/30 04:27:01;;;;;;;97.90;26.92;;;12.70;99.90;;;;;;4983817;28;20168;-85
2021/12/30 04:29:26;;;;;;;81.72;24.23;;;12.70;99.90;;;;;;5032501;28;20032;-85
2021/12/30 04:31:52;;;;;;;90.30;25.98;;;12.70;99.90;;;;;;5016068;28;20029;-84
2021/12/30 04:34:17;;;;;;;61.70;21.80;;;12.70;99.90;;;;;;4999479;28;20022;-84
2021/12/30 04:36:43;;;;;;;86.32;24.52;;;12.80;99.90;;;;;;4999807;28;20034;-84
2021/12/30 04:39:10;;;;;;;77.75;23.40;;;12.80;99.90;;;;;;4999458;28;20018;-84
2021/12/30 04:41:36;;;;;;;82.82;23.92;;;12.80;99.90;;;;;;5015884;28;20022;-84
2021/12/30 04:44:08;;;;;;;98.85;25.80;;;12.80;99.90;;;;;;5015743;28;20505;-85
2021/12/30 04:46:36;;;;;;;84.60;25.13;;;12.80;99.90;;;;;;5000867;28;20066;-84
2021/12/30 04:49:01;;;;;;;88.70;24.55;;;12.80;99.90;;;;;;4999804;28;20574;-87
2021/12/30 04:51:27;;;;;;;85.00;24.42;;;12.90;99.90;;;;;;4999688;28;20062;-87
2021/12/30 04:53:53;;;;;;;81.22;22.52;;;12.90;99.90;;;;;;5016233;28;20045;-87
2021/12/30 04:56:34;;;;;;;95.65;24.52;;;12.90;99.90;;;;;;4998696;28;20120;-87
2021/12/30 04:58:59;;;;;;;59.92;19.70;;;12.90;99.90;;;;;;5034988;28;20029;-87
2021/12/30 05:01:25;;;;;;;76.18;22.10;;;12.90;99.90;;;;;;5019059;28;20052;-87
2021/12/30 05:03:50;;;;;;;86.80;21.92;;;12.90;99.90;;;;;;5014267;28;20040;-86
2021/12/30 05:06:16;;;;;;;71.80;20.17;;;12.90;99.90;;;;;;4986664;28;20037;-88
2021/12/30 05:08:42;;;;;;;73.82;19.83;;;12.90;99.90;;;;;;5002657;28;20037;-87
2021/12/30 05:11:08;;;;;;;100.13;21.05;;;12.90;99.90;;;;;;4986902;28;20033;-87
2021/12/30 05:13:33;;;;;;;63.83;18.48;;;12.90;99.90;;;;;;5019505;28;20521;-88
2021/12/30 05:15:59;;;;;;;54.50;17.35;;;12.90;99.90;;;;;;5002812;28;20501;-88
2021/12/30 05:18:31;;;;;;;66.43;18.40;;;12.90;99.90;;;;;;5018993;28;20025;-88
2021/12/30 05:20:58;;;;;;;48.95;15.68;;;12.90;99.90;;;;;;5003466;28;20025;-87
2021/12/30 05:23:24;;;;;;;57.53;16.17;;;12.90;99.90;;;;;;5002940;28;20112;-87
2021/12/30 05:25:49;;;;;;;58.20;15.55;;;12.90;99.90;;;;;;5018752;28;20052;-87
2021/12/30 05:28:15;;;;;;;60.97;16.05;;;12.90;99.90;;;;;;5002270;28;20033;-87
2021/12/30 05:30:41;;;;;;;46.58;13.77;;;12.90;99.90;;;;;;5018781;28;20048;-88
2021/12/30 05:33:06;;;;;;;56.80;14.43;;;12.90;99.90;;;;;;4986111;28;20050;-87
2021/12/30 05:35:32;;;;;;;54.75;13.50;;;12.90;99.90;;;;;;5018715;28;20013;-87
2021/12/30 05:38:00;;;;;;;41.50;12.63;;;13.00;99.90;;;;;;5002181;28;20033;-87
2021/12/30 05:40:26;;;;;;;57.33;13.85;;;13.00;99.90;;;;;;5035122;28;20022;-87
2021/12/30 05:42:51;;;;;;;39.67;11.95;;;13.00;99.90;;;;;;5018334;28;20014;-87
2021/12/30 05:45:19;;;;;;;46.80;12.13;;;13.00;99.90;;;;;;5002182;28;20167;-87
2021/12/30 05:47:48;;;;;;;50.55;12.13;;;13.00;99.90;;;;;;5018468;28;20442;-87
2021/12/30 05:50:25;;;;;;;42.47;11.40;;;13.00;99.90;;;;;;5017994;28;20033;-88
2021/12/30 05:52:51;;;;;;;41.50;11.50;;;13.00;99.90;;;;;;5009699;28;20394;-87
2021/12/30 05:55:17;;;;;;;32.47;9.45;;;13.00;99.90;;;;;;5013017;28;20033;-87
2021/12/30 05:57:44;;;;;;;42.22;11.07;;;13.00;99.90;;;;;;5012808;28;20116;-88
2021/12/30 06:00:14;;;;;;;52.50;11.98;;;13.00;99.90;;;;;;5014288;28;20093;-88
2021/12/30 06:02:41;;;;;;;41.15;12.98;;;13.10;99.90;;;;;;5014725;28;20026;-88
2021/12/30 06:05:08;;;;;;;56.78;15.93;;;13.10;99.90;;;;;;5014971;28;20032;-88
2021/12/30 06:07:34;;;;;;;41.92;14.07;;;13.10;99.90;;;;;;5014795;28;20040;-88
2021/12/30 06:10:00;;;;;;;57.75;16.50;;;13.10;99.90;;;;;;5014768;28;20054;-88
2021/12/30 06:12:25;;;;;;;65.50;20.00;;;13.10;99.90;;;;;;5014979;28;20025;-88
2021/12/30 06:14:51;;;;;;;74.43;20.70;;;13.10;99.90;;;;;;4998214;28;20456;-88
2021/12/30 06:17:17;;;;;;;76.97;20.85;;;13.10;99.90;;;;;;5014443;28;20486;-89
2021/12/30 06:19:43;;;;;;;68.68;21.17;;;13.20;99.90;;;;;;5014516;28;20029;-88
2021/12/30 06:22:10;;;;;;;67.55;21.75;;;13.20;99.90;;;;;;5014725;28;20022;-88
2021/12/30 06:24:36;;;;;;;69.05;22.40;;;13.20;99.90;;;;;;4998149;28;20036;-87
2021/12/30 06:27:01;;;;;;;76.63;24.25;;;13.10;99.90;;;;;;5014258;28;20394;-88
2021/12/30 06:29:27;;;;;;;97.10;24.65;;;13.20;99.90;;;;;;5014440;28;20034;-87
2021/12/30 06:31:53;;;;;;;81.38;25.42;;;13.20;99.90;;;;;;4997897;28;20026;-88
2021/12/30 06:34:19;;;;;;;80.57;24.77;;;13.20;99.90;;;;;;4997886;28;20032;-88
2021/12/30 06:36:44;;;;;;;61.50;21.92;;;13.20;99.90;;;;;;5014028;28;20026;-89
2021/12/30 06:39:10;;;;;;;78.78;23.85;;;13.20;99.90;;;;;;5012192;28;20029;-89
2021/12/30 06:41:36;;;;;;;77.20;23.92;;;13.20;99.90;;;;;;5011491;28;20490;-89
2021/12/30 06:44:01;;;;;;;65.57;22.02;;;13.20;99.90;;;;;;4997049;28;20335;-88
2021/12/30 06:46:27;;;;;;;88.95;24.73;;;13.30;99.90;;;;;;5014679;28;20498;-88
2021/12/30 06:48:54;;;;;;;74.35;24.30;;;13.30;99.90;;;;;;5001389;28;20034;-88
2021/12/30 06:51:23;;;;;;;71.90;23.40;;;13.30;99.90;;;;;;5004120;28;20032;-89
2021/12/30 06:53:54;;;;;;;63.80;23.85;;;13.30;99.90;;;;;;5020517;28;20022;-88
2021/12/30 06:56:20;;;;;;;;;;;13.30;99.90;;;;;;5000356;28;20117;-89
2021/12/30 06:58:46;;;;;;;59.00;23.55;;;13.40;99.90;;;;;;4997537;28;19952;-89
2021/12/30 07:01:12;;;;;;;51.90;24.00;;;13.40;99.90;;;;;;5014166;28;20464;-89
2021/12/30 07:03:37;;;;;;;45.75;21.63;;;13.30;99.90;;;;;;4997385;28;20025;-88
2021/12/30 07:06:03;;;;;;;41.88;20.10;;;13.30;99.90;;;;;;5014038;28;20030;-88
2021/12/30 07:08:29;;;;;;;38.30;19.10;;;13.30;99.90;;;;;;4998028;28;20045;-89
2021/12/30 07:10:54;;;;;;;51.03;22.17;;;13.30;99.90;;;;;;4998489;28;20120;-88
2021/12/30 07:13:20;;;;;;;47.28;20.50;;;13.30;99.90;;;;;;5014308;28;20514;-89
2021/12/30 07:15:46;;;;;;;54.97;22.98;;;13.20;99.90;;;;;;5014171;28;20438;-89
2021/12/30 07:18:12;;;;;;;42.05;19.40;;;13.20;99.90;;;;;;5013466;28;20029;-89
2021/12/30 07:20:38;;;;;;;38.00;19.55;;;13.20;99.90;;;;;;5014857;28;20065;-88
2021/12/30 07:23:04;;;;;;;41.53;19.95;;;13.20;99.90;;;;;;5019525;28;20026;-89
2021/12/30 07:25:29;;;;;;;52.20;23.75;;;13.20;99.90;;;;;;5018761;28;20025;-88
2021/12/30 07:27:55;;;;;;;53.28;23.40;;;13.20;99.90;;;;;;5015496;28;20111;-88
2021/12/30 07:30:24;;;;;;;54.45;24.63;;;13.20;99.90;;;;;;5012844;28;20026;-89
2021/12/30 07:32:50;;;;;;;55.88;24.77;;;13.20;99.90;;;;;;5012915;28;20022;-86
2021/12/30 07:35:18;;;;;;;50.67;24.35;;;13.20;99.90;;;;;;4999435;28;20107;-86
2021/12/30 07:37:44;;;;;;;48.75;24.23;;;13.20;99.90;;;;;;5017686;28;20490;-86
2021/12/30 07:40:11;;;;;;;57.13;26.02;;;13.20;99.90;;;;;;5030752;28;20024;-86
2021/12/30 07:42:36;;;;;;;48.33;26.00;;;13.30;99.90;;;;;;5014963;28;20025;-86
2021/12/30 07:45:04;;;;;;;56.63;25.98;;;13.20;99.90;;;;;;5014250;28;20480;-86
2021/12/30 07:47:30;;;;;;;47.92;24.08;;;13.30;99.90;;;;;;5014953;28;20090;-86
2021/12/30 07:50:04;;;;;;;83.40;28.20;;;13.30;99.90;;;;;;4982805;28;20018;-89
2021/12/30 07:52:29;;;;;;;80.90;26.00;;;13.30;99.90;;;;;;4999955;28;20467;-89
2021/12/30 07:54:55;;;;;;;71.38;24.20;;;13.30;99.90;;;;;;5019676;28;20028;-89
2021/12/30 07:57:24;;;;;;;57.42;20.77;;;13.30;99.90;;;;;;5016735;28;20542;-88
2021/12/30 07:59:51;;;;;;;56.50;20.92;;;13.30;99.90;;;;;;5017135;28;20044;-89
2021/12/30 08:02:17;;;;;;;51.53;17.77;;;13.40;99.90;;;;;;5016923;28;20052;-90
2021/12/30 08:04:50;;;;;;;43.90;15.80;;;13.40;99.90;;;;;;5000221;28;20037;-89
2021/12/30 08:07:20;;;;;;;37.97;15.35;;;13.40;99.90;;;;;;5001513;28;20046;-88
2021/12/30 08:09:46;;;;;;;39.67;14.40;;;13.50;99.90;;;;;;5000981;28;20376;-87
2021/12/30 08:12:12;;;;;;;33.53;12.82;;;13.50;99.90;;;;;;5032292;28;20064;-90
2021/12/30 08:14:38;;;;;;;35.42;13.57;;;13.50;99.90;;;;;;5016490;28;20029;-93
2021/12/30 08:17:04;;;;;;;32.70;13.02;;;13.60;99.90;;;;;;5017166;28;20041;-91
2021/12/30 08:19:30;;;;;;;30.30;12.57;;;13.60;99.90;;;;;;5007560;28;20018;-88
2021/12/30 08:21:56;;;;;;;32.13;12.23;;;13.60;99.90;;;;;;4997798;28;20030;-88
2021/12/30 08:24:21;;;;;;;23.20;10.18;;;13.60;99.90;;;;;;5015852;28;20033;-87
2021/12/30 08:26:47;;;;;;;24.42;11.20;;;13.70;99.90;;;;;;5019685;28;20038;-88
2021/12/30 08:29:13;;;;;;;24.55;10.65;;;13.70;99.90;;;;;;5019866;28;20056;-88
2021/12/30 08:31:39;;;;;;;22.25;11.10;;;13.70;99.90;;;;;;5020296;28;20025;-88
2021/12/30 08:34:05;;;;;;;20.95;9.95;;;13.70;99.90;;;;;;5003679;28;20029;-88
2021/12/30 08:36:32;;;;;;;20.70;9.65;;;13.70;99.90;;;;;;5006268;28;20029;-88
2021/12/30 08:38:59;;;;;;;16.58;8.93;;;13.70;99.90;;;;;;5001753;28;20018;-88
2021/12/30 08:41:28;;;;;;;21.10;9.02;;;13.70;99.90;;;;;;5018482;28;20029;-89
2021/12/30 08:43:53;;;;;;;18.38;8.95;;;13.70;99.90;;;;;;5002467;28;20021;-90
2021/12/30 08:46:23;;;;;;;18.15;8.32;;;13.70;99.90;;;;;;4995170;28;20029;-86
2021/12/30 08:48:51;;;;;;;20.38;9.10;;;13.80;99.90;;;;;;5035370;28;20065;-87
2021/12/30 08:51:16;;;;;;;20.58;11.32;;;13.80;99.90;;;;;;5001083;28;20017;-86
2021/12/30 08:53:44;;;;;;;22.20;11.73;;;13.80;99.90;;;;;;5012777;28;20029;-86
2021/12/30 08:56:19;;;;;;;19.70;11.25;;;13.80;99.90;;;;;;5018225;28;20600;-86
2021/12/30 08:58:53;;;;;;;19.52;10.95;;;13.80;99.90;;;;;;5018103;28;20034;-86
2021/12/30 09:01:28;;;;;;;23.90;11.13;;;13.80;99.90;;;;;;5018468;28;20037;-86
2021/12/30 09:04:01;;;;;;;23.75;11.50;;;13.80;99.90;;;;;;5018977;28;20418;-85
2021/12/30 09:06:28;;;;;;;20.65;10.38;;;13.80;99.90;;;;;;4988172;28;20033;-85
2021/12/30 09:08:56;;;;;;;20.27;10.98;;;13.80;99.90;;;;;;5033377;28;20041;-89
2021/12/30 09:16:01;;;;;;;21.40;10.68;;;13.80;99.90;;;;;;5037204;28;20036;-86
2021/12/30 09:18:50;;;;;;;14.73;9.07;;;13.80;99.90;;;;;;5035815;28;20038;-85
2021/12/30 09:21:18;;;;;;;16.25;7.90;;;13.80;99.90;;;;;;5018599;28;20037;-88
2021/12/30 09:23:52;;;;;;;18.02;7.80;;;13.80;99.90;;;;;;4986844;28;20033;-88
2021/12/30 09:26:17;;;;;;;19.08;8.32;;;13.80;99.90;;;;;;5002850;28;20030;-88
2021/12/30 09:28:54;;;;;;;12.68;6.70;;;13.80;99.90;;;;;;4986261;28;20463;-88
2021/12/30 09:31:58;;;;;;;17.63;7.60;;;13.90;99.90;;;;;;5018660;28;20026;-88
2021/12/30 09:34:31;;;;;;;14.35;6.78;;;13.90;99.90;;;;;;5018636;28;20442;-88
2021/12/30 09:37:09;;;;;;;12.20;5.80;;;13.90;99.90;;;;;;5035273;28;20025;-87
2021/12/30 09:39:41;;;;;;;15.23;6.28;;;13.90;99.90;;;;;;5030074;28;20063;-88
2021/12/30 09:42:07;;;;;;;16.33;6.88;;;14.00;99.90;;;;;;5018782;28;20028;-88
2021/12/30 09:44:35;;;;;;;15.18;6.65;;;14.00;99.90;;;;;;5002840;28;20156;-88
2021/12/30 09:47:07;;;;;;;13.43;5.20;;;14.00;99.90;;;;;;5035123;28;20100;-88
2021/12/30 09:49:40;;;;;;;12.52;5.60;;;14.00;99.90;;;;;;5002950;28;20036;-87
2021/12/30 09:52:32;;;;;;;13.15;5.75;;;14.00;99.90;;;;;;5034849;28;20039;-87
2021/12/30 09:54:58;;;;;;;13.38;5.15;;;14.00;99.90;;;;;;5001845;28;20040;-88
2021/12/30 09:57:27;;;;;;;18.55;10.38;;;14.00;99.90;;;;;;4985855;28;20124;-87
2021/12/30 09:59:55;;;;;;;13.63;5.28;;;14.10;99.90;;;;;;5018600;28;20030;-87
2021/12/30 10:02:32;;;;;;;18.90;4.50;;;14.10;99.90;;;;;;5034865;28;20043;-87
2021/12/30 10:05:18;;;;;;;13.50;5.00;;;14.10;99.90;;;;;;5009393;28;20075;-88
2021/12/30 10:07:44;;;;;;;9.25;3.95;;;14.10;99.90;;;;;;5016246;28;20021;-88
2021/12/30 10:10:40;;;;;;;12.13;4.28;;;14.10;99.90;;;;;;5000251;28;20117;-88
2021/12/30 10:13:29;;;;;;;16.42;4.05;;;14.10;99.90;;;;;;5011928;28;20034;-87
2021/12/30 10:15:57;;;;;;;16.20;4.53;;;14.20;99.90;;;;;;5015896;28;20060;-87
2021/12/30 10:18:25;;;;;;;19.65;4.50;;;14.20;99.90;;;;;;5011844;28;20126;-87
2021/12/30 10:21:00;;;;;;;15.43;4.43;;;14.20;99.90;;;;;;5000220;28;20494;-87
2021/12/30 10:23:25;;;;;;;19.48;4.45;;;14.20;99.90;;;;;;5000515;28;20092;-88
2021/12/30 10:25:58;;;;;;;19.60;4.13;;;14.30;99.90;;;;;;5002541;28;20475;-88
2021/12/30 10:28:36;;;;;;;14.93;3.78;;;14.30;99.90;;;;;;5019105;28;20105;-87
2021/12/30 10:31:11;;;;;;;16.27;3.55;;;14.30;99.90;;;;;;5019100;28;20056;-87
2021/12/30 10:33:49;;;;;;;19.17;4.32;;;14.30;99.90;;;;;;5034081;28;20021;-87
2021/12/30 10:36:33;;;;;;;16.27;5.05;;;14.30;99.90;;;;;;5001921;28;20033;-88
2021/12/30 10:39:22;;;;;;;17.42;4.50;;;14.30;99.90;;;;;;5018117;28;20018;-88
2021/12/30 10:41:52;;;;;;;14.70;4.28;;;14.30;99.90;;;;;;5017747;28;20087;-88
2021/12/30 10:44:21;;;;;;;18.67;4.28;;;14.30;99.90;;;;;;5000875;28;20092;-88
2021/12/30 10:47:20;;;;;;;17.00;4.28;;;14.30;99.90;;;;;;5017767;28;20079;-88
2021/12/30 10:50:16;;;;;;;17.70;4.68;;;14.30;99.90;;;;;;5033870;28;20041;-88
2021/12/30 10:52:56;;;;;;;13.20;5.22;;;14.30;99.90;;;;;;4998486;28;20041;-88
2021/12/30 10:55:32;;;;;;;17.75;5.63;;;14.30;99.90;;;;;;5001215;28;20124;-89
2021/12/30 10:58:27;;;;;;;14.88;5.10;;;14.30;99.90;;;;;;5019130;28;20053;-89
2021/12/30 11:01:14;;;;;;;20.45;5.90;;;14.30;99.90;;;;;;5017771;28;20364;-88
2021/12/30 11:04:05;;;;;;;21.67;5.47;;;14.30;99.90;;;;;;5034387;28;20044;-87
2021/12/30 11:06:43;;;;;;;21.25;5.63;;;14.30;99.90;;;;;;4999623;28;20045;-88
2021/12/30 11:09:30;;;;;;;20.33;5.20;;;14.30;99.90;;;;;;5000402;28;20041;-88
2021/12/30 11:12:05;;;;;;;16.33;4.20;;;14.40;99.90;;;;;;5009969;28;20184;-88
2021/12/30 11:14:41;;;;;;;17.08;4.07;;;14.40;99.90;;;;;;5000545;28;20041;-88
2021/12/30 11:17:18;;;;;;;17.90;4.25;;;14.40;99.90;;;;;;4985615;28;20042;-88
2021/12/30 11:20:08;;;;;;;15.90;3.88;;;14.40;99.90;;;;;;5015271;28;20029;-88
2021/12/30 11:22:38;;;;;;;11.25;3.95;;;14.40;99.90;;;;;;5031012;28;20133;-88
2021/12/30 11:25:25;;;;;;;16.17;4.30;;;14.40;99.90;;;;;;5001518;28;20469;-89
2021/12/30 11:27:52;;;;;;;18.02;4.90;;;14.40;99.90;;;;;;5032411;28;20057;-88
2021/12/30 11:30:18;;;;;;;17.05;4.65;;;14.40;99.90;;;;;;5000601;28;20032;-88
2021/12/30 11:32:48;;;;;;;14.02;3.78;;;14.40;99.90;;;;;;5000878;28;20030;-89
2021/12/30 11:35:15;;;;;;;20.30;5.07;;;14.40;99.90;;;;;;5019267;28;20014;-87
2021/12/30 11:37:45;;;;;;;17.08;4.22;;;14.40;99.90;;;;;;5003980;28;20032;-87
2021/12/30 11:40:21;;;;;;;22.73;3.80;;;14.40;99.90;;;;;;5002210;28;20045;-87
2021/12/30 11:42:59;;;;;;;18.35;4.90;;;14.40;99.90;;;;;;5019879;28;20021;-88
2021/12/30 11:45:37;;;;;;;14.07;3.55;;;14.40;99.90;;;;;;5016813;28;20049;-85
2021/12/30 11:48:05;;;;;;;15.10;4.50;;;14.40;99.90;;;;;;5017109;28;20057;-84
2021/12/30 11:50:39;;;;;;;14.88;3.50;;;14.40;99.90;;;;;;5032913;28;20052;-85
2021/12/30 11:53:18;;;;;;;15.40;4.03;;;14.40;99.90;;;;;;5016826;28;20025;-85
2021/12/30 11:55:57;;;;;;;18.98;3.90;;;14.40;99.90;;;;;;5034617;28;20041;-84
2021/12/30 12:01:01;;;;;;;17.73;4.13;;;14.50;99.90;;;;;;5035395;28;20075;-85
2021/12/30 12:03:47;;;;;;;17.67;4.35;;;14.50;99.90;;;;;;5021160;28;20022;-85
2021/12/30 12:06:28;;;;;;;16.63;3.80;;;14.50;99.90;;;;;;5037847;28;20063;-85
2021/12/30 12:09:22;;;;;;;15.00;3.88;;;14.50;99.90;;;;;;5036619;28;20038;-84
2021/12/30 12:12:11;;;;;;;14.38;4.78;;;14.50;99.90;;;;;;5020275;28;20053;-84
2021/12/30 12:17:42;;;;;;;16.85;4.68;;;14.60;99.90;;;;;;5037801;28;20032;-85
2021/12/30 12:20:30;;;;;;;13.80;3.72;;;14.50;99.90;;;;;;5003558;28;20038;-88
2021/12/30 12:23:21;;;;;;;17.60;4.78;;;14.60;99.90;;;;;;5019308;28;20112;-88
2021/12/30 12:26:09;;;;;;;18.17;3.50;;;14.50;99.90;;;;;;5019268;28;20030;-88
2021/12/30 12:28:38;;;;;;;13.77;3.88;;;14.50;99.90;;;;;;5033397;28;20048;-88
2021/12/30 12:31:07;;;;;;;15.38;4.13;;;14.50;99.90;;;;;;5003326;28;20033;-88
2021/12/30 12:33:34;;;;;;;14.85;4.13;;;14.60;99.90;;;;;;5019479;28;20037;-88
2021/12/30 12:36:22;;;;;;;;;;;;;;;;;;;;;
2021/12/30 12:38:53;;;;;;;14.75;3.78;;;14.60;99.90;;;;;;5030765;22;20069;-88
2021/12/30 12:41:37;;;;;;;;;;;14.60;99.90;;;;;;5003905;28;20061;-88
2021/12/30 12:44:21;;;;;;;13.63;3.10;;;14.60;99.90;;;;;;5019754;28;19905;-89
2021/12/30 12:46:59;;;;;;;16.88;3.67;;;14.60;99.90;;;;;;5014450;28;20043;-89
2021/12/30 12:49:34;;;;;;;11.85;3.20;;;14.60;99.90;;;;;;5019974;28;20136;-89
2021/12/30 12:57:56;;;;;;;10.30;2.90;;;14.60;99.90;;;;;;5031477;28;20399;-88
2021/12/30 13:00:24;;;;;;;14.40;3.30;;;14.60;99.90;;;;;;5003286;28;20100;-88
2021/12/30 13:09:34;;;;;;;10.25;3.53;;;14.60;99.90;;;;;;5037071;28;20071;-88
2021/12/30 13:12:07;;;;;;;12.45;3.70;;;14.70;99.90;;;;;;5019515;28;20457;-88
2021/12/30 13:14:34;;;;;;;8.50;3.00;;;14.70;99.90;;;;;;5019549;28;20098;-88
2021/12/30 13:17:50;;;;;;;11.60;3.00;;;14.70;99.90;;;;;;5017922;28;20469;-87